Ana Sayfa
METAR-TAF:

METAR-TAF

Havaalanları :

Concord, Kuzey Carolina, Amerika Birleşik Devletleri

Enlem: 35-23-07N, Boylam: 080-42-35W, yükseklik: 210 m

Güncel hava durumu gözlemi

Rapor saat 09:15 UTC de 21 dakika önce yapıldı.
Sakin rüzgar
Sıcaklık 9°C
Nem 81%
Basınç 1019 hPa
Görüş mesafesi: 16.1 km
7000 ft yükseklikte çok bulutlu

METAR: KJQF 220915Z AUTO 00000KT 10SM OVC070 09/06 A3009 RMK AO2

Saat: 04:36 (09:36 UTC)


TAF: eksik

4.000'den fazla havaalanı için hava durumu gözlemleri ve tahminleri (METAR ve TAF raporları).

Kullanılabilir istasyonlar harita üzerinde sarı ve kırmızı noktalarla gösterilir.

İstasyonun adını görmek için fareyi noktanın üzerinde gezdirin.

Sonrasında hava gözlem ve tahminlerini görmek için tıklayın.

Haritayı değiştirmek için: yaklaştırmak için siyah artı işaretli yeşil düğmeye ve uzaklaştırmak için de eksi işaretli düğmeye hızla tıklayın; bitişik haritalar için yeşil okları kullanın.


METAR-TAF: